sensor_id;sensor_type;location;lat;lon;timestamp;P1;durP1;ratioP1;P2;durP2;ratioP2
3975;SDS011;2002;48.812;9.180;2023-06-19T00:00:50;2.23;;;0.70;;
3975;SDS011;2002;48.812;9.180;2023-06-19T00:03:16;1.20;;;0.60;;
3975;SDS011;2002;48.812;9.180;2023-06-19T00:05:41;0.93;;;0.40;;
3975;SDS011;2002;48.812;9.180;2023-06-19T00:08:07;1.90;;;0.70;;
3975;SDS011;2002;48.812;9.180;2023-06-19T00:10:33;9.40;;;1.63;;
3975;SDS011;2002;48.812;9.180;2023-06-19T00:12:58;2.40;;;0.80;;
3975;SDS011;2002;48.812;9.180;2023-06-19T00:15:24;1.03;;;0.60;;
3975;SDS011;2002;48.812;9.180;2023-06-19T00:17:49;2.80;;;0.80;;
3975;SDS011;2002;48.812;9.180;2023-06-19T00:20:15;7.23;;;0.80;;
3975;SDS011;2002;48.812;9.180;2023-06-19T00:22:41;1.60;;;0.70;;
3975;SDS011;2002;48.812;9.180;2023-06-19T00:25:07;0.90;;;0.70;;
3975;SDS011;2002;48.812;9.180;2023-06-19T00:27:32;1.37;;;0.40;;
3975;SDS011;2002;48.812;9.180;2023-06-19T00:29:58;5.13;;;0.73;;
3975;SDS011;2002;48.812;9.180;2023-06-19T00:32:30;1.03;;;0.60;;
3975;SDS011;2002;48.812;9.180;2023-06-19T00:34:55;1.00;;;0.57;;
3975;SDS011;2002;48.812;9.180;2023-06-19T00:37:21;4.00;;;0.50;;
3975;SDS011;2002;48.812;9.180;2023-06-19T00:39:47;3.43;;;0.60;;
3975;SDS011;2002;48.812;9.180;2023-06-19T00:42:12;2.00;;;0.77;;
3975;SDS011;2002;48.812;9.180;2023-06-19T00:44:38;4.50;;;0.90;;
3975;SDS011;2002;48.812;9.180;2023-06-19T00:47:04;5.73;;;1.20;;
3975;SDS011;2002;48.812;9.180;2023-06-19T00:49:30;4.60;;;0.97;;
3975;SDS011;2002;48.812;9.180;2023-06-19T00:51:56;11.23;;;2.30;;
3975;SDS011;2002;48.812;9.180;2023-06-19T00:54:22;3.87;;;0.90;;
3975;SDS011;2002;48.812;9.180;2023-06-19T00:56:48;6.03;;;0.97;;
3975;SDS011;2002;48.812;9.180;2023-06-19T00:59:15;3.07;;;1.13;;
3975;SDS011;2002;48.812;9.180;2023-06-19T01:01:42;4.00;;;1.23;;
3975;SDS011;2002;48.812;9.180;2023-06-19T01:04:08;2.20;;;0.90;;
3975;SDS011;2002;48.812;9.180;2023-06-19T01:06:42;1.80;;;0.80;;
3975;SDS011;2002;48.812;9.180;2023-06-19T01:09:15;2.93;;;0.90;;
3975;SDS011;2002;48.812;9.180;2023-06-19T01:11:43;2.40;;;0.90;;
3975;SDS011;2002;48.812;9.180;2023-06-19T01:14:27;5.90;;;1.10;;
3975;SDS011;2002;48.812;9.180;2023-06-19T01:16:57;2.50;;;0.90;;
3975;SDS011;2002;48.812;9.180;2023-06-19T01:19:23;3.27;;;0.90;;
3975;SDS011;2002;48.812;9.180;2023-06-19T01:21:50;7.27;;;1.20;;
3975;SDS011;2002;48.812;9.180;2023-06-19T01:24:16;2.30;;;0.93;;
3975;SDS011;2002;48.812;9.180;2023-06-19T01:26:41;2.07;;;1.10;;
3975;SDS011;2002;48.812;9.180;2023-06-19T01:29:11;2.37;;;0.90;;
3975;SDS011;2002;48.812;9.180;2023-06-19T01:31:59;2.97;;;0.80;;
3975;SDS011;2002;48.812;9.180;2023-06-19T01:34:35;1.63;;;1.07;;
3975;SDS011;2002;48.812;9.180;2023-06-19T01:37:02;3.35;;;0.98;;
3975;SDS011;2002;48.812;9.180;2023-06-19T01:39:30;1.43;;;0.50;;
3975;SDS011;2002;48.812;9.180;2023-06-19T01:41:56;3.43;;;1.30;;
3975;SDS011;2002;48.812;9.180;2023-06-19T01:44:23;2.53;;;0.70;;
3975;SDS011;2002;48.812;9.180;2023-06-19T01:46:49;1.80;;;0.63;;
3975;SDS011;2002;48.812;9.180;2023-06-19T01:49:15;3.10;;;0.60;;
3975;SDS011;2002;48.812;9.180;2023-06-19T01:51:41;0.80;;;0.50;;
3975;SDS011;2002;48.812;9.180;2023-06-19T01:54:07;1.00;;;0.53;;
3975;SDS011;2002;48.812;9.180;2023-06-19T01:56:33;2.93;;;0.60;;
3975;SDS011;2002;48.812;9.180;2023-06-19T01:58:59;2.50;;;0.57;;
3975;SDS011;2002;48.812;9.180;2023-06-19T02:01:25;1.67;;;0.53;;
3975;SDS011;2002;48.812;9.180;2023-06-19T02:03:50;1.33;;;0.57;;
3975;SDS011;2002;48.812;9.180;2023-06-19T02:06:16;1.73;;;0.53;;
3975;SDS011;2002;48.812;9.180;2023-06-19T02:08:41;0.97;;;0.80;;
3975;SDS011;2002;48.812;9.180;2023-06-19T02:11:07;3.03;;;0.60;;
3975;SDS011;2002;48.812;9.180;2023-06-19T02:13:33;4.07;;;0.53;;
3975;SDS011;2002;48.812;9.180;2023-06-19T02:15:58;0.77;;;0.40;;
3975;SDS011;2002;48.812;9.180;2023-06-19T02:18:24;1.97;;;0.70;;
3975;SDS011;2002;48.812;9.180;2023-06-19T02:20:49;1.50;;;0.55;;
3975;SDS011;2002;48.812;9.180;2023-06-19T02:23:15;5.90;;;0.70;;
3975;SDS011;2002;48.812;9.180;2023-06-19T02:25:40;2.30;;;0.60;;
3975;SDS011;2002;48.812;9.180;2023-06-19T02:28:06;1.40;;;0.40;;
3975;SDS011;2002;48.812;9.180;2023-06-19T02:30:32;0.77;;;0.40;;
3975;SDS011;2002;48.812;9.180;2023-06-19T02:32:57;0.60;;;0.40;;
3975;SDS011;2002;48.812;9.180;2023-06-19T02:35:23;1.50;;;0.50;;
3975;SDS011;2002;48.812;9.180;2023-06-19T02:37:48;1.30;;;0.40;;
3975;SDS011;2002;48.812;9.180;2023-06-19T02:40:14;1.07;;;0.40;;
3975;SDS011;2002;48.812;9.180;2023-06-19T02:42:40;1.07;;;0.40;;
3975;SDS011;2002;48.812;9.180;2023-06-19T02:45:05;0.93;;;0.40;;
3975;SDS011;2002;48.812;9.180;2023-06-19T02:47:32;2.50;;;0.40;;
3975;SDS011;2002;48.812;9.180;2023-06-19T02:50:01;1.30;;;0.40;;
3975;SDS011;2002;48.812;9.180;2023-06-19T02:52:28;1.45;;;0.70;;
3975;SDS011;2002;48.812;9.180;2023-06-19T02:54:53;1.50;;;0.50;;
3975;SDS011;2002;48.812;9.180;2023-06-19T02:57:19;2.17;;;0.50;;
3975;SDS011;2002;48.812;9.180;2023-06-19T02:59:45;4.97;;;0.50;;
3975;SDS011;2002;48.812;9.180;2023-06-19T03:02:11;1.10;;;0.40;;
3975;SDS011;2002;48.812;9.180;2023-06-19T03:04:36;0.98;;;0.40;;
3975;SDS011;2002;48.812;9.180;2023-06-19T03:07:02;2.17;;;0.40;;
3975;SDS011;2002;48.812;9.180;2023-06-19T03:09:28;2.95;;;0.70;;
3975;SDS011;2002;48.812;9.180;2023-06-19T03:11:53;1.27;;;0.50;;
3975;SDS011;2002;48.812;9.180;2023-06-19T03:14:19;2.60;;;0.60;;
3975;SDS011;2002;48.812;9.180;2023-06-19T03:16:45;1.90;;;0.60;;
3975;SDS011;2002;48.812;9.180;2023-06-19T03:19:10;1.30;;;0.40;;
3975;SDS011;2002;48.812;9.180;2023-06-19T03:21:36;1.00;;;0.40;;
3975;SDS011;2002;48.812;9.180;2023-06-19T03:24:02;0.90;;;0.45;;
3975;SDS011;2002;48.812;9.180;2023-06-19T03:26:28;0.97;;;0.40;;
3975;SDS011;2002;48.812;9.180;2023-06-19T03:28:53;2.20;;;0.40;;
3975;SDS011;2002;48.812;9.180;2023-06-19T03:31:19;1.50;;;0.40;;
3975;SDS011;2002;48.812;9.180;2023-06-19T03:33:44;2.10;;;0.50;;
3975;SDS011;2002;48.812;9.180;2023-06-19T03:36:10;0.97;;;0.40;;
3975;SDS011;2002;48.812;9.180;2023-06-19T03:38:36;0.90;;;0.40;;
3975;SDS011;2002;48.812;9.180;2023-06-19T03:41:01;1.53;;;0.40;;
3975;SDS011;2002;48.812;9.180;2023-06-19T03:43:27;1.17;;;0.30;;
3975;SDS011;2002;48.812;9.180;2023-06-19T03:45:52;0.50;;;0.30;;
3975;SDS011;2002;48.812;9.180;2023-06-19T03:48:18;1.27;;;0.67;;
3975;SDS011;2002;48.812;9.180;2023-06-19T03:50:43;1.27;;;0.80;;
3975;SDS011;2002;48.812;9.180;2023-06-19T03:53:09;0.70;;;0.40;;
3975;SDS011;2002;48.812;9.180;2023-06-19T03:55:35;0.82;;;0.43;;
3975;SDS011;2002;48.812;9.180;2023-06-19T03:58:00;1.05;;;0.30;;
3975;SDS011;2002;48.812;9.180;2023-06-19T04:00:26;1.00;;;0.40;;
3975;SDS011;2002;48.812;9.180;2023-06-19T04:02:51;1.73;;;0.50;;
3975;SDS011;2002;48.812;9.180;2023-06-19T04:05:17;3.47;;;0.50;;
3975;SDS011;2002;48.812;9.180;2023-06-19T04:07:43;2.70;;;0.70;;
3975;SDS011;2002;48.812;9.180;2023-06-19T04:10:09;0.70;;;0.40;;
3975;SDS011;2002;48.812;9.180;2023-06-19T04:12:36;0.70;;;0.43;;
3975;SDS011;2002;48.812;9.180;2023-06-19T04:15:02;0.90;;;0.50;;
3975;SDS011;2002;48.812;9.180;2023-06-19T04:17:28;0.70;;;0.50;;
3975;SDS011;2002;48.812;9.180;2023-06-19T04:19:53;0.93;;;0.40;;
3975;SDS011;2002;48.812;9.180;2023-06-19T04:22:19;1.07;;;0.40;;
3975;SDS011;2002;48.812;9.180;2023-06-19T04:24:44;1.23;;;0.60;;
3975;SDS011;2002;48.812;9.180;2023-06-19T04:27:10;0.90;;;0.50;;
3975;SDS011;2002;48.812;9.180;2023-06-19T04:29:35;0.80;;;0.40;;
3975;SDS011;2002;48.812;9.180;2023-06-19T04:32:01;2.40;;;0.50;;
3975;SDS011;2002;48.812;9.180;2023-06-19T04:34:28;1.00;;;0.40;;
3975;SDS011;2002;48.812;9.180;2023-06-19T04:36:53;0.60;;;0.37;;
3975;SDS011;2002;48.812;9.180;2023-06-19T04:39:23;2.20;;;0.70;;
3975;SDS011;2002;48.812;9.180;2023-06-19T04:41:49;4.50;;;0.63;;
3975;SDS011;2002;48.812;9.180;2023-06-19T04:44:14;3.43;;;1.07;;
3975;SDS011;2002;48.812;9.180;2023-06-19T04:46:40;1.53;;;0.70;;
3975;SDS011;2002;48.812;9.180;2023-06-19T04:49:06;1.90;;;0.63;;
3975;SDS011;2002;48.812;9.180;2023-06-19T04:51:32;3.73;;;1.53;;
3975;SDS011;2002;48.812;9.180;2023-06-19T04:54:01;10.40;;;1.90;;
3975;SDS011;2002;48.812;9.180;2023-06-19T04:56:27;7.90;;;1.50;;
3975;SDS011;2002;48.812;9.180;2023-06-19T04:58:53;8.03;;;2.00;;
3975;SDS011;2002;48.812;9.180;2023-06-19T05:01:24;5.50;;;1.60;;
3975;SDS011;2002;48.812;9.180;2023-06-19T05:03:53;3.20;;;1.80;;
3975;SDS011;2002;48.812;9.180;2023-06-19T05:06:20;6.17;;;1.43;;
3975;SDS011;2002;48.812;9.180;2023-06-19T05:08:47;6.50;;;1.30;;
3975;SDS011;2002;48.812;9.180;2023-06-19T05:11:13;4.10;;;1.40;;
3975;SDS011;2002;48.812;9.180;2023-06-19T05:13:38;7.30;;;3.03;;
3975;SDS011;2002;48.812;9.180;2023-06-19T05:16:04;17.00;;;5.40;;
3975;SDS011;2002;48.812;9.180;2023-06-19T05:18:29;22.67;;;8.40;;
3975;SDS011;2002;48.812;9.180;2023-06-19T05:20:55;16.47;;;5.13;;
3975;SDS011;2002;48.812;9.180;2023-06-19T05:23:20;14.53;;;6.47;;
3975;SDS011;2002;48.812;9.180;2023-06-19T05:25:46;15.07;;;6.00;;
3975;SDS011;2002;48.812;9.180;2023-06-19T05:28:11;9.53;;;4.80;;
3975;SDS011;2002;48.812;9.180;2023-06-19T05:30:37;11.77;;;5.90;;
3975;SDS011;2002;48.812;9.180;2023-06-19T05:33:02;21.33;;;7.83;;
3975;SDS011;2002;48.812;9.180;2023-06-19T05:35:28;12.27;;;6.33;;
3975;SDS011;2002;48.812;9.180;2023-06-19T05:37:55;12.70;;;6.40;;
3975;SDS011;2002;48.812;9.180;2023-06-19T05:40:21;14.20;;;6.73;;
3975;SDS011;2002;48.812;9.180;2023-06-19T05:42:46;11.67;;;5.23;;
3975;SDS011;2002;48.812;9.180;2023-06-19T05:45:12;12.70;;;6.47;;
3975;SDS011;2002;48.812;9.180;2023-06-19T05:47:37;13.30;;;5.60;;
3975;SDS011;2002;48.812;9.180;2023-06-19T05:50:03;10.60;;;5.03;;
3975;SDS011;2002;48.812;9.180;2023-06-19T05:52:29;8.20;;;4.90;;
3975;SDS011;2002;48.812;9.180;2023-06-19T05:54:54;11.40;;;5.10;;
3975;SDS011;2002;48.812;9.180;2023-06-19T05:57:20;8.00;;;4.00;;
3975;SDS011;2002;48.812;9.180;2023-06-19T05:59:48;8.20;;;4.37;;
3975;SDS011;2002;48.812;9.180;2023-06-19T06:02:14;7.90;;;5.00;;
3975;SDS011;2002;48.812;9.180;2023-06-19T06:04:40;7.13;;;3.67;;
3975;SDS011;2002;48.812;9.180;2023-06-19T06:07:07;8.30;;;4.90;;
3975;SDS011;2002;48.812;9.180;2023-06-19T06:09:33;9.87;;;4.87;;
3975;SDS011;2002;48.812;9.180;2023-06-19T06:11:59;9.50;;;4.00;;
3975;SDS011;2002;48.812;9.180;2023-06-19T06:14:25;10.40;;;5.20;;
3975;SDS011;2002;48.812;9.180;2023-06-19T06:16:51;7.40;;;4.43;;
3975;SDS011;2002;48.812;9.180;2023-06-19T06:19:16;5.23;;;4.07;;
3975;SDS011;2002;48.812;9.180;2023-06-19T06:21:43;8.37;;;4.17;;
3975;SDS011;2002;48.812;9.180;2023-06-19T06:24:08;7.47;;;3.90;;
3975;SDS011;2002;48.812;9.180;2023-06-19T06:26:34;5.93;;;3.90;;
3975;SDS011;2002;48.812;9.180;2023-06-19T06:29:00;8.57;;;4.60;;
3975;SDS011;2002;48.812;9.180;2023-06-19T06:31:26;9.57;;;3.90;;
3975;SDS011;2002;48.812;9.180;2023-06-19T06:33:52;9.20;;;4.10;;
3975;SDS011;2002;48.812;9.180;2023-06-19T06:36:18;9.37;;;4.10;;
3975;SDS011;2002;48.812;9.180;2023-06-19T06:38:44;12.20;;;4.80;;
3975;SDS011;2002;48.812;9.180;2023-06-19T06:41:09;7.93;;;4.83;;
3975;SDS011;2002;48.812;9.180;2023-06-19T06:43:35;9.93;;;4.57;;
3975;SDS011;2002;48.812;9.180;2023-06-19T06:46:00;17.57;;;5.33;;
3975;SDS011;2002;48.812;9.180;2023-06-19T06:48:26;11.30;;;3.90;;
3975;SDS011;2002;48.812;9.180;2023-06-19T06:50:52;6.53;;;4.40;;
3975;SDS011;2002;48.812;9.180;2023-06-19T06:53:24;9.60;;;3.80;;
3975;SDS011;2002;48.812;9.180;2023-06-19T06:55:50;7.43;;;4.10;;
3975;SDS011;2002;48.812;9.180;2023-06-19T06:58:16;11.57;;;3.60;;
3975;SDS011;2002;48.812;9.180;2023-06-19T07:00:43;7.10;;;3.77;;
3975;SDS011;2002;48.812;9.180;2023-06-19T07:03:09;7.57;;;5.73;;
3975;SDS011;2002;48.812;9.180;2023-06-19T07:05:34;10.13;;;5.00;;
3975;SDS011;2002;48.812;9.180;2023-06-19T07:08:00;12.40;;;4.50;;
3975;SDS011;2002;48.812;9.180;2023-06-19T07:10:26;12.47;;;3.73;;
3975;SDS011;2002;48.812;9.180;2023-06-19T07:12:51;8.33;;;3.83;;
3975;SDS011;2002;48.812;9.180;2023-06-19T07:15:17;11.33;;;4.50;;
3975;SDS011;2002;48.812;9.180;2023-06-19T07:17:45;7.90;;;4.20;;
3975;SDS011;2002;48.812;9.180;2023-06-19T07:20:11;8.33;;;4.17;;
3975;SDS011;2002;48.812;9.180;2023-06-19T07:22:36;9.43;;;4.27;;
3975;SDS011;2002;48.812;9.180;2023-06-19T07:25:02;7.20;;;3.27;;
3975;SDS011;2002;48.812;9.180;2023-06-19T07:27:29;11.27;;;3.13;;
3975;SDS011;2002;48.812;9.180;2023-06-19T07:29:55;9.70;;;3.10;;
3975;SDS011;2002;48.812;9.180;2023-06-19T07:32:20;5.43;;;2.90;;
3975;SDS011;2002;48.812;9.180;2023-06-19T07:34:46;4.27;;;2.87;;
3975;SDS011;2002;48.812;9.180;2023-06-19T07:37:12;5.50;;;5.00;;
3975;SDS011;2002;48.812;9.180;2023-06-19T07:39:49;4.90;;;2.63;;
3975;SDS011;2002;48.812;9.180;2023-06-19T07:42:16;4.27;;;2.23;;
3975;SDS011;2002;48.812;9.180;2023-06-19T07:44:43;5.13;;;2.70;;
3975;SDS011;2002;48.812;9.180;2023-06-19T07:47:09;4.67;;;2.93;;
3975;SDS011;2002;48.812;9.180;2023-06-19T07:49:35;4.63;;;2.10;;
3975;SDS011;2002;48.812;9.180;2023-06-19T07:52:01;3.80;;;2.30;;
3975;SDS011;2002;48.812;9.180;2023-06-19T07:54:28;4.17;;;2.33;;
3975;SDS011;2002;48.812;9.180;2023-06-19T07:56:53;2.20;;;2.00;;
3975;SDS011;2002;48.812;9.180;2023-06-19T07:59:19;3.40;;;1.97;;
3975;SDS011;2002;48.812;9.180;2023-06-19T08:01:45;6.20;;;2.03;;
3975;SDS011;2002;48.812;9.180;2023-06-19T08:04:11;2.80;;;1.87;;
3975;SDS011;2002;48.812;9.180;2023-06-19T08:06:36;3.53;;;2.33;;
3975;SDS011;2002;48.812;9.180;2023-06-19T08:09:02;2.10;;;1.53;;
3975;SDS011;2002;48.812;9.180;2023-06-19T08:11:28;2.53;;;2.30;;
3975;SDS011;2002;48.812;9.180;2023-06-19T08:13:54;2.90;;;1.50;;
3975;SDS011;2002;48.812;9.180;2023-06-19T08:16:20;3.57;;;1.50;;
3975;SDS011;2002;48.812;9.180;2023-06-19T08:18:45;2.37;;;1.43;;
3975;SDS011;2002;48.812;9.180;2023-06-19T08:21:11;1.73;;;1.27;;
3975;SDS011;2002;48.812;9.180;2023-06-19T08:23:37;1.87;;;1.47;;
3975;SDS011;2002;48.812;9.180;2023-06-19T08:26:04;4.43;;;1.43;;
3975;SDS011;2002;48.812;9.180;2023-06-19T08:28:33;1.97;;;1.00;;
3975;SDS011;2002;48.812;9.180;2023-06-19T08:30:59;1.10;;;0.77;;
3975;SDS011;2002;48.812;9.180;2023-06-19T08:33:24;1.67;;;1.17;;
3975;SDS011;2002;48.812;9.180;2023-06-19T08:35:50;1.40;;;1.07;;
3975;SDS011;2002;48.812;9.180;2023-06-19T08:38:15;1.13;;;1.03;;
3975;SDS011;2002;48.812;9.180;2023-06-19T08:40:41;1.50;;;1.00;;
3975;SDS011;2002;48.812;9.180;2023-06-19T08:43:08;1.10;;;1.00;;
3975;SDS011;2002;48.812;9.180;2023-06-19T08:45:33;1.73;;;1.23;;
3975;SDS011;2002;48.812;9.180;2023-06-19T08:48:00;2.53;;;1.33;;
3975;SDS011;2002;48.812;9.180;2023-06-19T08:50:28;1.17;;;1.00;;
3975;SDS011;2002;48.812;9.180;2023-06-19T08:52:57;1.20;;;0.93;;
3975;SDS011;2002;48.812;9.180;2023-06-19T08:55:23;0.70;;;0.67;;
3975;SDS011;2002;48.812;9.180;2023-06-19T08:57:49;0.80;;;0.60;;
3975;SDS011;2002;48.812;9.180;2023-06-19T09:00:28;1.40;;;0.83;;
3975;SDS011;2002;48.812;9.180;2023-06-19T09:03:01;2.40;;;0.93;;
3975;SDS011;2002;48.812;9.180;2023-06-19T09:05:28;1.43;;;0.83;;
3975;SDS011;2002;48.812;9.180;2023-06-19T09:07:54;1.33;;;0.70;;
3975;SDS011;2002;48.812;9.180;2023-06-19T09:10:21;0.70;;;0.60;;
3975;SDS011;2002;48.812;9.180;2023-06-19T09:15:23;1.20;;;0.70;;
3975;SDS011;2002;48.812;9.180;2023-06-19T09:18:04;0.70;;;0.60;;
3975;SDS011;2002;48.812;9.180;2023-06-19T09:20:33;1.43;;;0.40;;
3975;SDS011;2002;48.812;9.180;2023-06-19T09:22:59;0.87;;;0.70;;
3975;SDS011;2002;48.812;9.180;2023-06-19T09:25:25;0.87;;;0.60;;
3975;SDS011;2002;48.812;9.180;2023-06-19T09:27:55;0.93;;;0.50;;
3975;SDS011;2002;48.812;9.180;2023-06-19T09:30:21;1.03;;;0.50;;
3975;SDS011;2002;48.812;9.180;2023-06-19T09:32:47;2.70;;;0.50;;
3975;SDS011;2002;48.812;9.180;2023-06-19T09:35:13;0.93;;;0.53;;
3975;SDS011;2002;48.812;9.180;2023-06-19T09:37:39;0.70;;;0.50;;
3975;SDS011;2002;48.812;9.180;2023-06-19T09:40:05;0.60;;;0.40;;
3975;SDS011;2002;48.812;9.180;2023-06-19T09:42:35;1.13;;;0.60;;
3975;SDS011;2002;48.812;9.180;2023-06-19T09:45:03;0.70;;;0.43;;
3975;SDS011;2002;48.812;9.180;2023-06-19T09:47:37;0.83;;;0.40;;
3975;SDS011;2002;48.812;9.180;2023-06-19T09:50:05;0.77;;;0.60;;
3975;SDS011;2002;48.812;9.180;2023-06-19T09:52:32;0.90;;;0.60;;
3975;SDS011;2002;48.812;9.180;2023-06-19T09:54:58;0.73;;;0.43;;
3975;SDS011;2002;48.812;9.180;2023-06-19T09:57:30;0.70;;;0.50;;
3975;SDS011;2002;48.812;9.180;2023-06-19T09:59:57;0.60;;;0.43;;
3975;SDS011;2002;48.812;9.180;2023-06-19T10:02:25;1.20;;;0.50;;
3975;SDS011;2002;48.812;9.180;2023-06-19T10:04:53;0.60;;;0.50;;
3975;SDS011;2002;48.812;9.180;2023-06-19T10:07:21;0.70;;;0.30;;
3975;SDS011;2002;48.812;9.180;2023-06-19T10:09:58;0.50;;;0.30;;
3975;SDS011;2002;48.812;9.180;2023-06-19T10:12:35;0.53;;;0.37;;
3975;SDS011;2002;48.812;9.180;2023-06-19T10:15:10;0.70;;;0.40;;
3975;SDS011;2002;48.812;9.180;2023-06-19T10:17:53;1.23;;;0.50;;
3975;SDS011;2002;48.812;9.180;2023-06-19T10:20:22;0.60;;;0.50;;
3975;SDS011;2002;48.812;9.180;2023-06-19T10:22:53;0.50;;;0.30;;
3975;SDS011;2002;48.812;9.180;2023-06-19T10:25:27;0.60;;;0.40;;
3975;SDS011;2002;48.812;9.180;2023-06-19T10:27:55;0.50;;;0.30;;
3975;SDS011;2002;48.812;9.180;2023-06-19T10:30:21;0.50;;;0.33;;
3975;SDS011;2002;48.812;9.180;2023-06-19T10:32:47;0.50;;;0.30;;
3975;SDS011;2002;48.812;9.180;2023-06-19T10:35:13;0.50;;;0.40;;
3975;SDS011;2002;48.812;9.180;2023-06-19T10:37:40;1.03;;;0.70;;
3975;SDS011;2002;48.812;9.180;2023-06-19T10:40:08;0.60;;;0.47;;
3975;SDS011;2002;48.812;9.180;2023-06-19T10:42:37;0.97;;;0.50;;
3975;SDS011;2002;48.812;9.180;2023-06-19T10:45:07;0.67;;;0.43;;
3975;SDS011;2002;48.812;9.180;2023-06-19T10:47:34;0.70;;;0.50;;
3975;SDS011;2002;48.812;9.180;2023-06-19T10:50:00;0.60;;;0.50;;
3975;SDS011;2002;48.812;9.180;2023-06-19T10:52:29;0.60;;;0.50;;
3975;SDS011;2002;48.812;9.180;2023-06-19T10:54:55;0.70;;;0.50;;
3975;SDS011;2002;48.812;9.180;2023-06-19T10:57:28;0.83;;;0.70;;
3975;SDS011;2002;48.812;9.180;2023-06-19T10:59:54;0.60;;;0.50;;
3975;SDS011;2002;48.812;9.180;2023-06-19T11:02:20;0.50;;;0.40;;
3975;SDS011;2002;48.812;9.180;2023-06-19T11:04:46;0.50;;;0.30;;
3975;SDS011;2002;48.812;9.180;2023-06-19T11:07:11;0.53;;;0.40;;
3975;SDS011;2002;48.812;9.180;2023-06-19T11:09:37;0.70;;;0.50;;
3975;SDS011;2002;48.812;9.180;2023-06-19T11:12:03;0.70;;;0.40;;
3975;SDS011;2002;48.812;9.180;2023-06-19T11:14:31;0.83;;;0.83;;
3975;SDS011;2002;48.812;9.180;2023-06-19T11:16:56;0.60;;;0.40;;
3975;SDS011;2002;48.812;9.180;2023-06-19T11:19:22;0.60;;;0.40;;
3975;SDS011;2002;48.812;9.180;2023-06-19T11:21:51;0.67;;;0.50;;
3975;SDS011;2002;48.812;9.180;2023-06-19T11:24:17;0.60;;;0.40;;
3975;SDS011;2002;48.812;9.180;2023-06-19T11:26:46;0.60;;;0.40;;
3975;SDS011;2002;48.812;9.180;2023-06-19T11:29:22;0.70;;;0.43;;
3975;SDS011;2002;48.812;9.180;2023-06-19T11:31:49;0.67;;;0.50;;
3975;SDS011;2002;48.812;9.180;2023-06-19T11:34:18;0.87;;;0.40;;
3975;SDS011;2002;48.812;9.180;2023-06-19T11:36:44;1.47;;;0.40;;
3975;SDS011;2002;48.812;9.180;2023-06-19T11:39:13;0.60;;;0.40;;
3975;SDS011;2002;48.812;9.180;2023-06-19T11:41:40;0.60;;;0.40;;
3975;SDS011;2002;48.812;9.180;2023-06-19T11:44:08;0.60;;;0.40;;
3975;SDS011;2002;48.812;9.180;2023-06-19T11:46:34;0.90;;;0.40;;
3975;SDS011;2002;48.812;9.180;2023-06-19T11:49:07;0.50;;;0.40;;
3975;SDS011;2002;48.812;9.180;2023-06-19T11:51:35;0.50;;;0.30;;
3975;SDS011;2002;48.812;9.180;2023-06-19T11:54:01;0.50;;;0.30;;
3975;SDS011;2002;48.812;9.180;2023-06-19T11:56:29;0.70;;;0.40;;
3975;SDS011;2002;48.812;9.180;2023-06-19T11:58:54;0.50;;;0.30;;
3975;SDS011;2002;48.812;9.180;2023-06-19T12:01:20;0.50;;;0.30;;
3975;SDS011;2002;48.812;9.180;2023-06-19T12:03:45;0.50;;;0.40;;
3975;SDS011;2002;48.812;9.180;2023-06-19T12:06:11;0.70;;;0.50;;
3975;SDS011;2002;48.812;9.180;2023-06-19T12:08:37;0.50;;;0.30;;
3975;SDS011;2002;48.812;9.180;2023-06-19T12:11:02;0.50;;;0.40;;
3975;SDS011;2002;48.812;9.180;2023-06-19T12:13:30;0.70;;;0.50;;
3975;SDS011;2002;48.812;9.180;2023-06-19T12:15:55;0.50;;;0.40;;
3975;SDS011;2002;48.812;9.180;2023-06-19T12:18:21;0.67;;;0.40;;
3975;SDS011;2002;48.812;9.180;2023-06-19T12:20:46;1.30;;;0.80;;
3975;SDS011;2002;48.812;9.180;2023-06-19T12:23:12;0.67;;;0.40;;
3975;SDS011;2002;48.812;9.180;2023-06-19T12:25:37;1.03;;;0.43;;
3975;SDS011;2002;48.812;9.180;2023-06-19T12:28:03;0.50;;;0.40;;
3975;SDS011;2002;48.812;9.180;2023-06-19T12:30:32;0.60;;;0.40;;
3975;SDS011;2002;48.812;9.180;2023-06-19T12:32:58;0.60;;;0.40;;
3975;SDS011;2002;48.812;9.180;2023-06-19T12:35:24;0.60;;;0.40;;
3975;SDS011;2002;48.812;9.180;2023-06-19T12:37:50;0.60;;;0.33;;
3975;SDS011;2002;48.812;9.180;2023-06-19T12:40:16;0.50;;;0.30;;
3975;SDS011;2002;48.812;9.180;2023-06-19T12:42:42;0.60;;;0.40;;
3975;SDS011;2002;48.812;9.180;2023-06-19T12:45:08;0.70;;;0.50;;
3975;SDS011;2002;48.812;9.180;2023-06-19T12:47:34;0.60;;;0.40;;
3975;SDS011;2002;48.812;9.180;2023-06-19T12:50:01;0.70;;;0.40;;
3975;SDS011;2002;48.812;9.180;2023-06-19T12:52:26;0.60;;;0.30;;
3975;SDS011;2002;48.812;9.180;2023-06-19T12:54:52;0.50;;;0.30;;
3975;SDS011;2002;48.812;9.180;2023-06-19T12:57:17;0.70;;;0.50;;
3975;SDS011;2002;48.812;9.180;2023-06-19T12:59:43;0.73;;;0.67;;
3975;SDS011;2002;48.812;9.180;2023-06-19T13:02:09;0.70;;;0.50;;
3975;SDS011;2002;48.812;9.180;2023-06-19T13:04:34;0.60;;;0.37;;
3975;SDS011;2002;48.812;9.180;2023-06-19T13:07:00;0.40;;;0.30;;
3975;SDS011;2002;48.812;9.180;2023-06-19T13:09:25;0.50;;;0.30;;
3975;SDS011;2002;48.812;9.180;2023-06-19T13:11:50;0.50;;;0.40;;
3975;SDS011;2002;48.812;9.180;2023-06-19T13:14:16;0.60;;;0.43;;
3975;SDS011;2002;48.812;9.180;2023-06-19T13:16:42;0.70;;;0.40;;
3975;SDS011;2002;48.812;9.180;2023-06-19T13:19:07;0.60;;;0.40;;
3975;SDS011;2002;48.812;9.180;2023-06-19T13:21:33;0.70;;;0.60;;
3975;SDS011;2002;48.812;9.180;2023-06-19T13:24:00;0.40;;;0.30;;
3975;SDS011;2002;48.812;9.180;2023-06-19T13:26:26;0.50;;;0.30;;
3975;SDS011;2002;48.812;9.180;2023-06-19T13:28:51;0.50;;;0.40;;
3975;SDS011;2002;48.812;9.180;2023-06-19T13:31:17;0.50;;;0.30;;
3975;SDS011;2002;48.812;9.180;2023-06-19T13:33:43;0.50;;;0.37;;
3975;SDS011;2002;48.812;9.180;2023-06-19T13:36:08;0.80;;;0.30;;
3975;SDS011;2002;48.812;9.180;2023-06-19T13:38:34;0.70;;;0.50;;
3975;SDS011;2002;48.812;9.180;2023-06-19T13:40:59;0.50;;;0.40;;
3975;SDS011;2002;48.812;9.180;2023-06-19T13:43:25;0.50;;;0.30;;
3975;SDS011;2002;48.812;9.180;2023-06-19T13:45:50;0.50;;;0.40;;
3975;SDS011;2002;48.812;9.180;2023-06-19T13:48:16;0.90;;;0.50;;
3975;SDS011;2002;48.812;9.180;2023-06-19T13:50:42;0.50;;;0.30;;
3975;SDS011;2002;48.812;9.180;2023-06-19T13:53:07;0.60;;;0.40;;
3975;SDS011;2002;48.812;9.180;2023-06-19T13:55:33;0.60;;;0.40;;
3975;SDS011;2002;48.812;9.180;2023-06-19T13:57:58;0.60;;;0.30;;
3975;SDS011;2002;48.812;9.180;2023-06-19T14:00:24;0.57;;;0.40;;
3975;SDS011;2002;48.812;9.180;2023-06-19T14:02:49;0.60;;;0.40;;
3975;SDS011;2002;48.812;9.180;2023-06-19T14:05:15;0.50;;;0.30;;
3975;SDS011;2002;48.812;9.180;2023-06-19T14:07:41;0.50;;;0.40;;
3975;SDS011;2002;48.812;9.180;2023-06-19T14:10:07;0.50;;;0.30;;
3975;SDS011;2002;48.812;9.180;2023-06-19T14:12:33;0.50;;;0.40;;
3975;SDS011;2002;48.812;9.180;2023-06-19T14:14:59;0.50;;;0.30;;
3975;SDS011;2002;48.812;9.180;2023-06-19T14:17:24;0.53;;;0.40;;
3975;SDS011;2002;48.812;9.180;2023-06-19T14:19:50;0.80;;;0.40;;
3975;SDS011;2002;48.812;9.180;2023-06-19T14:22:16;0.80;;;0.50;;
3975;SDS011;2002;48.812;9.180;2023-06-19T14:24:42;0.60;;;0.43;;
3975;SDS011;2002;48.812;9.180;2023-06-19T14:27:07;0.60;;;0.40;;
3975;SDS011;2002;48.812;9.180;2023-06-19T14:29:33;0.70;;;0.50;;
3975;SDS011;2002;48.812;9.180;2023-06-19T14:31:58;0.60;;;0.40;;
3975;SDS011;2002;48.812;9.180;2023-06-19T14:34:24;0.60;;;0.50;;
3975;SDS011;2002;48.812;9.180;2023-06-19T14:36:50;0.70;;;0.50;;
3975;SDS011;2002;48.812;9.180;2023-06-19T14:39:15;0.50;;;0.47;;
3975;SDS011;2002;48.812;9.180;2023-06-19T14:41:41;0.60;;;0.40;;
3975;SDS011;2002;48.812;9.180;2023-06-19T14:44:07;0.70;;;0.40;;
3975;SDS011;2002;48.812;9.180;2023-06-19T14:46:32;0.60;;;0.37;;
3975;SDS011;2002;48.812;9.180;2023-06-19T14:48:58;0.60;;;0.50;;
3975;SDS011;2002;48.812;9.180;2023-06-19T14:51:25;0.50;;;0.40;;
3975;SDS011;2002;48.812;9.180;2023-06-19T14:53:51;0.57;;;0.40;;
3975;SDS011;2002;48.812;9.180;2023-06-19T14:56:17;0.57;;;0.40;;
3975;SDS011;2002;48.812;9.180;2023-06-19T14:58:42;0.53;;;0.37;;
3975;SDS011;2002;48.812;9.180;2023-06-19T15:01:08;0.60;;;0.40;;
3975;SDS011;2002;48.812;9.180;2023-06-19T15:03:35;0.50;;;0.40;;
3975;SDS011;2002;48.812;9.180;2023-06-19T15:06:00;0.50;;;0.30;;
3975;SDS011;2002;48.812;9.180;2023-06-19T15:08:26;0.50;;;0.30;;
3975;SDS011;2002;48.812;9.180;2023-06-19T15:10:52;0.47;;;0.30;;
3975;SDS011;2002;48.812;9.180;2023-06-19T15:13:17;0.50;;;0.40;;